Time;durP1;ratioP1;P1;durP2;ratioP2;P2;SDS_P1;SDS_P2;PMS_P1;PMS_P2;Temp;Humidity;BMP_temperature;BMP_pressure;BME280_temperature;BME280_humidity;BME280_pressure;Samples;Min_cycle;Max_cycle;Signal;HPM_P1;HPM_P2
2022/06/16 00:00:36;;;;;;;5.13;1.87;;;17.80;1.00;;;;;;5033279;28;20164;-74
2022/06/16 00:03:03;;;;;;;7.03;1.97;;;17.80;99.90;;;;;;5037068;28;20654;-75
2022/06/16 00:05:33;;;;;;;3.67;2.10;;;17.70;99.90;;;;;;5035583;28;20180;-75
2022/06/16 00:07:59;;;;;;;2.47;1.87;;;17.70;99.90;;;;;;5037004;28;20262;-75
2022/06/16 00:10:25;;;;;;;5.00;2.00;;;17.80;99.90;;;;;;5036787;28;20164;-75
2022/06/16 00:12:50;;;;;;;4.77;2.60;;;17.80;17.80;;;;;;5036694;28;20172;-75
2022/06/16 00:15:20;;;;;;;2.97;1.80;;;17.70;99.90;;;;;;5036659;28;20169;-75
2022/06/16 00:17:45;;;;;;;6.00;2.20;;;17.70;99.90;;;;;;5035244;28;20200;-75
2022/06/16 00:20:11;;;;;;;4.10;2.17;;;17.70;99.90;;;;;;5036791;28;20184;-75
2022/06/16 00:22:38;;;;;;;4.80;1.90;;;17.60;99.90;;;;;;5035230;28;20299;-74
2022/06/16 00:25:05;;;;;;;2.93;1.80;;;17.60;99.90;;;;;;5036380;28;20180;-75
2022/06/16 00:27:31;;;;;;;5.07;2.03;;;17.60;20.30;;;;;;5036207;28;20295;-75
2022/06/16 00:29:57;;;;;;;4.50;2.10;;;17.60;99.90;;;;;;5036606;28;20172;-75
2022/06/16 00:32:23;;;;;;;4.17;2.20;;;17.50;99.90;;;;;;5036498;28;20179;-75
2022/06/16 00:34:48;;;;;;;6.77;2.47;;;17.50;99.90;;;;;;5036779;28;20199;-76
2022/06/16 00:37:14;;;;;;;3.60;2.20;;;17.50;65.90;;;;;;5036125;28;20176;-75
2022/06/16 00:39:40;;;;;;;4.20;1.80;;;17.50;1.00;;;;;;5034950;28;20184;-76
2022/06/16 00:42:25;;;;;;;3.87;1.80;;;17.50;1.00;;;;;;5037488;28;20218;-74
2022/06/16 00:44:56;;;;;;;8.33;2.40;;;17.40;99.90;;;;;;5035764;28;20713;-74
2022/06/16 00:47:26;;;;;;;4.43;2.00;;;17.40;1.00;;;;;;5036723;28;20533;-75
2022/06/16 00:49:55;;;;;;;3.90;2.20;;;17.40;99.90;;;;;;5034675;28;20321;-75
2022/06/16 00:52:26;;;;;;;5.30;2.20;;;17.30;1.00;;;;;;5034723;28;20169;-75
2022/06/16 00:54:55;;;;;;;3.67;1.90;;;17.30;1.00;;;;;;5034710;28;20169;-76
2022/06/16 00:57:35;;;;;;;3.57;2.00;;;17.30;1.00;;;;;;5035971;28;20258;-75
2022/06/16 01:00:08;;;;;;;5.47;2.00;;;17.30;1.00;;;;;;5035799;28;20160;-75
2022/06/16 01:02:34;;;;;;;4.30;1.93;;;17.20;1.00;;;;;;5034595;28;20256;-75
2022/06/16 01:04:59;;;;;;;3.73;2.00;;;17.20;12.00;;;;;;5035700;28;20258;-75
2022/06/16 01:07:35;;;;;;;4.43;2.00;;;17.20;94.90;;;;;;5034309;28;20292;-74
2022/06/16 01:10:02;;;;;;;2.03;1.83;;;17.20;99.90;;;;;;5035608;28;20251;-75
2022/06/16 01:15:55;;;;;;;3.57;1.77;;;17.10;1.00;;;;;;5035851;28;20298;-76
2022/06/16 01:18:54;;;;;;;5.90;2.10;;;17.10;73.60;;;;;;5034137;28;20196;-75
2022/06/16 01:21:48;;;;;;;7.13;2.27;;;17.00;45.80;;;;;;5034498;28;20580;-76
2022/06/16 01:24:42;;;;;;;4.33;2.23;;;17.00;82.10;;;;;;5034141;28;20211;-75
2022/06/16 01:27:32;;;;;;;4.47;2.00;;;17.00;99.90;;;;;;5035208;28;20180;-76
2022/06/16 01:30:13;;;;;;;2.60;1.70;;;16.90;1.00;;;;;;5035380;28;20160;-75
2022/06/16 01:33:12;;;;;;;8.07;2.20;;;16.90;99.90;;;;;;5035319;28;20157;-75
2022/06/16 01:35:56;;;;;;;4.57;2.17;;;16.80;34.70;;;;;;5035680;28;20149;-75
2022/06/16 01:38:49;;;;;;;4.37;1.70;;;16.80;1.00;;;;;;5033783;28;20196;-76
2022/06/16 01:41:23;;;;;;;3.47;1.90;;;16.70;1.00;;;;;;5035324;28;20161;-75
2022/06/16 01:43:58;;;;;;;4.87;1.67;;;16.70;99.90;;;;;;5033692;28;20196;-75
2022/06/16 01:46:27;;;;;;;5.63;2.20;;;16.70;99.90;;;;;;5033879;28;20195;-75
2022/06/16 01:49:02;;;;;;;3.23;1.90;;;16.70;39.50;;;;;;5033581;28;20219;-76
2022/06/16 01:51:40;;;;;;;6.57;2.27;;;16.70;99.90;;;;;;5034905;28;20235;-76
2022/06/16 01:54:15;;;;;;;3.57;2.17;;;16.60;1.00;;;;;;5033758;28;20167;-75
2022/06/16 01:56:56;;;;;;;5.07;2.07;;;16.60;1.00;;;;;;5035049;28;20156;-75
2022/06/16 01:59:26;;;;;;;6.03;1.80;;;16.60;81.50;;;;;;5033452;28;20203;-75
2022/06/16 02:02:01;;;;;;;5.13;1.80;;;16.60;1.00;;;;;;5034597;28;20211;-76
2022/06/16 02:04:33;;;;;;;4.00;1.87;;;16.60;1.00;;;;;;5034864;28;20167;-74
2022/06/16 02:07:03;;;;;;;4.33;1.87;;;16.50;13.60;;;;;;5033567;28;20192;-75
2022/06/16 02:09:36;;;;;;;3.23;1.80;;;16.50;1.00;;;;;;5033027;28;20235;-75
2022/06/16 02:12:07;;;;;;;4.10;1.80;;;16.50;1.00;;;;;;5033174;28;20160;-75
2022/06/16 02:14:40;;;;;;;3.67;1.60;;;16.50;1.00;;;;;;5034402;28;20165;-75
2022/06/16 02:17:07;;;;;;;4.40;1.70;;;16.50;1.00;;;;;;5034675;28;20168;-76
2022/06/16 02:19:33;;;;;;;4.13;1.73;;;16.40;1.00;;;;;;5032981;28;20180;-75
2022/06/16 02:21:59;;;;;;;5.53;2.10;;;16.40;47.50;;;;;;5034310;28;20259;-76
2022/06/16 02:24:27;;;;;;;4.27;1.57;;;16.30;1.00;;;;;;5033971;28;20670;-76
2022/06/16 02:26:55;;;;;;;3.50;2.03;;;16.30;99.90;;;;;;5034267;28;20234;-75
2022/06/16 02:29:41;;;;;;;4.53;1.80;;;16.20;99.90;;;;;;5033991;28;20614;-75
2022/06/16 02:32:32;;;;;;;5.67;1.90;;;16.20;99.90;;;;;;5034846;28;20180;-75
2022/06/16 02:35:22;;;;;;;3.80;1.70;;;16.20;99.90;;;;;;5034020;28;20171;-76
2022/06/16 02:38:24;;;;;;;7.70;1.77;;;16.10;99.90;;;;;;5032682;28;20204;-75
2022/06/16 02:41:12;;;;;;;2.83;1.97;;;16.10;1.00;;;;;;5033871;28;20217;-75
2022/06/16 02:43:50;;;;;;;2.83;1.50;;;16.10;1.00;;;;;;5033599;28;20196;-75
2022/06/16 02:46:49;;;;;;;3.77;1.80;;;16.00;99.90;;;;;;5032451;28;20291;-76
2022/06/16 02:49:33;;;;;;;3.00;1.53;;;16.00;99.90;;;;;;5033708;28;20203;-75
2022/06/16 02:52:12;;;;;;;6.43;1.70;;;16.00;99.90;;;;;;5033882;28;20640;-75
2022/06/16 02:55:01;;;;;;;4.63;1.43;;;15.90;99.90;;;;;;5033911;28;20637;-75
2022/06/16 02:57:47;;;;;;;2.67;1.53;;;15.90;99.90;;;;;;5033554;28;20199;-75
2022/06/16 03:00:17;;;;;;;3.47;2.00;;;15.80;99.90;;;;;;5033633;28;20176;-76
2022/06/16 03:02:42;;;;;;;2.00;1.30;;;15.80;99.90;;;;;;5033526;28;20673;-76
2022/06/16 03:05:10;;;;;;;4.60;1.97;;;15.70;99.90;;;;;;5033662;28;20259;-76
2022/06/16 03:07:36;;;;;;;6.03;2.00;;;15.60;1.00;;;;;;5033860;28;20200;-76
2022/06/16 03:10:04;;;;;;;5.03;1.60;;;15.60;1.00;;;;;;5032145;28;20183;-76
2022/06/16 03:12:30;;;;;;;2.53;1.70;;;15.60;1.00;;;;;;5033312;28;20196;-76
2022/06/16 03:14:56;;;;;;;3.20;1.70;;;15.50;1.00;;;;;;5033364;28;20643;-76
2022/06/16 03:17:21;;;;;;;2.73;1.43;;;15.50;99.90;;;;;;5033182;28;20259;-76
2022/06/16 03:19:47;;;;;;;4.03;1.90;;;15.40;1.00;;;;;;5033272;28;20259;-76
2022/06/16 03:22:12;;;;;;;3.93;1.77;;;15.40;1.00;;;;;;5033416;28;20658;-75
2022/06/16 03:24:38;;;;;;;2.30;1.57;;;15.30;1.00;;;;;;5033163;28;20212;-76
2022/06/16 03:27:05;;;;;;;4.00;1.60;;;15.30;1.00;;;;;;5031876;28;20242;-76
2022/06/16 03:29:31;;;;;;;3.80;1.87;;;15.30;1.00;;;;;;5033337;28;20603;-75
2022/06/16 03:31:57;;;;;;;4.83;1.80;;;15.30;99.90;;;;;;5033090;28;20172;-75
2022/06/16 03:34:25;;;;;;;3.97;1.93;;;15.20;99.90;;;;;;5031840;28;20238;-75
2022/06/16 03:36:51;;;;;;;3.47;1.50;;;15.20;99.90;;;;;;5031327;28;20215;-76
2022/06/16 03:39:17;;;;;;;4.80;1.60;;;15.10;99.90;;;;;;5032933;28;20200;-75
2022/06/16 03:41:42;;;;;;;3.47;1.60;;;15.10;99.90;;;;;;5031767;28;20176;-75
2022/06/16 03:44:08;;;;;;;4.70;1.90;;;15.10;99.90;;;;;;5032944;28;20279;-76
2022/06/16 03:46:34;;;;;;;5.43;1.90;;;15.00;1.00;;;;;;5031593;28;20204;-75
2022/06/16 03:49:00;;;;;;;3.87;1.93;;;15.00;1.00;;;;;;5033100;28;20287;-75
2022/06/16 03:51:25;;;;;;;3.40;1.77;;;15.00;99.90;;;;;;5033081;28;20204;-76
2022/06/16 03:53:51;;;;;;;4.07;1.80;;;14.90;99.90;;;;;;5033154;28;20567;-75
2022/06/16 03:56:17;;;;;;;2.73;1.70;;;14.90;1.00;;;;;;5032038;28;20215;-75
2022/06/16 03:58:42;;;;;;;4.77;1.70;;;14.90;1.00;;;;;;5032611;28;20291;-75
2022/06/16 04:01:08;;;;;;;5.07;1.90;;;14.90;1.00;;;;;;5032943;28;20188;-75
2022/06/16 04:06:18;;;;;;;3.70;1.60;;;14.80;1.00;;;;;;5032708;28;20261;-75
2022/06/16 04:08:44;;;;;;;4.87;1.80;;;14.80;81.00;;;;;;5032881;28;20287;-75
2022/06/16 04:11:28;;;;;;;3.03;1.97;;;14.80;99.90;;;;;;5031519;28;20177;-76
2022/06/16 04:14:07;;;;;;;3.97;1.50;;;14.70;1.00;;;;;;5032842;28;20207;-75
2022/06/16 04:16:39;;;;;;;3.17;1.70;;;14.80;1.00;;;;;;5032786;28;20156;-75
2022/06/16 04:19:06;;;;;;;3.47;1.80;;;14.70;1.00;;;;;;5031302;28;20200;-75
2022/06/16 04:21:31;;;;;;;4.67;2.20;;;14.70;1.00;;;;;;5031417;28;20203;-75
2022/06/16 04:23:57;;;;;;;5.17;1.90;;;14.70;1.00;;;;;;5032575;28;20643;-75
2022/06/16 04:26:23;;;;;;;5.17;2.60;;;14.70;1.00;;;;;;5031175;28;20200;-75
2022/06/16 04:28:49;;;;;;;3.67;1.73;;;14.70;1.00;;;;;;5031219;28;20208;-75
2022/06/16 04:31:15;;;;;;;4.20;2.10;;;14.70;51.80;;;;;;5031343;28;20176;-75
2022/06/16 04:33:41;;;;;;;6.83;1.73;;;14.80;1.00;;;;;;5032835;28;20199;-76
2022/06/16 04:36:07;;;;;;;6.80;2.00;;;14.80;1.00;;;;;;5031289;28;20650;-75
2022/06/16 04:38:33;;;;;;;3.90;1.90;;;14.80;99.90;;;;;;5032641;28;20196;-75
2022/06/16 04:40:58;;;;;;;5.53;1.60;;;14.80;99.90;;;;;;5031176;28;20180;-75
2022/06/16 04:43:25;;;;;;;2.63;1.80;;;14.80;1.00;;;;;;5031027;28;20203;-76
2022/06/16 04:45:51;;;;;;;2.97;1.63;;;14.80;99.90;;;;;;5032384;28;20187;-75
2022/06/16 04:48:16;;;;;;;4.27;1.70;;;14.80;1.00;;;;;;5035351;28;20657;-75
2022/06/16 04:50:42;;;;;;;2.17;1.67;;;14.70;1.00;;;;;;5036023;28;20179;-75
2022/06/16 04:53:08;;;;;;;3.67;1.50;;;14.70;99.90;;;;;;5035958;28;20168;-75
2022/06/16 04:55:34;;;;;;;2.10;1.60;;;14.70;99.90;;;;;;5035928;28;20177;-75
2022/06/16 04:58:01;;;;;;;2.93;1.30;;;14.80;1.00;;;;;;5035814;28;20257;-75
2022/06/16 05:00:26;;;;;;;2.47;1.53;;;14.80;1.00;;;;;;5035856;28;20574;-75
2022/06/16 05:02:52;;;;;;;3.13;1.50;;;14.80;99.90;;;;;;5034820;28;20187;-75
2022/06/16 05:05:18;;;;;;;4.53;1.70;;;14.80;1.00;;;;;;5034503;28;20184;-75
2022/06/16 05:07:43;;;;;;;2.97;1.57;;;14.90;1.00;;;;;;5035626;28;20231;-75
2022/06/16 05:10:10;;;;;;;4.43;1.77;;;14.80;1.00;;;;;;5035609;28;20230;-76
2022/06/16 05:12:36;;;;;;;2.90;1.60;;;14.80;1.00;;;;;;5035665;28;20172;-75
2022/06/16 05:15:01;;;;;;;4.97;1.57;;;14.90;1.00;;;;;;5035583;28;20172;-75
2022/06/16 05:17:27;;;;;;;3.03;1.60;;;14.90;1.00;;;;;;5035487;28;20192;-75
2022/06/16 05:19:52;;;;;;;4.87;2.07;;;15.00;99.90;;;;;;5035411;28;20188;-75
2022/06/16 05:22:18;;;;;;;3.67;1.73;;;15.00;1.00;;;;;;5035479;28;20698;-74
2022/06/16 05:24:43;;;;;;;3.40;1.60;;;15.00;1.00;;;;;;5035758;28;20525;-74
2022/06/16 05:27:09;;;;;;;2.80;1.70;;;15.00;1.00;;;;;;5035546;28;20554;-75
2022/06/16 05:29:35;;;;;;;3.97;1.67;;;15.10;1.00;;;;;;5034003;28;20176;-74
2022/06/16 05:32:00;;;;;;;8.23;1.83;;;15.10;1.00;;;;;;5035242;28;20180;-74
2022/06/16 05:34:26;;;;;;;7.27;1.60;;;15.10;99.90;;;;;;5033985;28;20184;-74
2022/06/16 05:36:51;;;;;;;3.40;2.03;;;15.10;1.00;;;;;;5035162;28;20604;-74
2022/06/16 05:39:17;;;;;;;1.90;1.60;;;15.10;1.00;;;;;;5035181;28;20681;-75
2022/06/16 05:41:42;;;;;;;4.03;1.53;;;15.20;1.00;;;;;;5035145;28;20556;-75
2022/06/16 05:44:09;;;;;;;3.73;1.60;;;15.20;1.00;;;;;;5035303;28;20193;-78
2022/06/16 05:46:35;;;;;;;4.37;1.77;;;15.30;1.00;;;;;;5037702;28;20204;-78
2022/06/16 05:49:00;;;;;;;4.30;1.80;;;15.30;99.90;;;;;;5036533;28;20670;-78
2022/06/16 05:51:26;;;;;;;4.77;1.97;;;15.30;1.00;;;;;;5034173;28;20179;-77
2022/06/16 05:53:51;;;;;;;2.27;1.40;;;15.30;1.00;;;;;;5034917;28;20176;-77
2022/06/16 05:56:18;;;;;;;2.77;1.60;;;15.40;12.00;;;;;;5035409;28;20181;-77
2022/06/16 05:58:44;;;;;;;5.20;1.53;;;15.40;1.00;;;;;;5033150;28;20249;-77
2022/06/16 06:01:11;;;;;;;4.90;1.80;;;15.50;30.60;;;;;;5034818;28;20208;-77
2022/06/16 06:03:38;;;;;;;2.23;1.60;;;15.50;1.00;;;;;;5035071;28;20188;-77
2022/06/16 06:06:04;;;;;;;1.97;1.20;;;15.60;1.00;;;;;;5038886;28;20176;-77
2022/06/16 06:16:54;;;;;;;4.37;1.83;;;15.70;1.00;;;;;;5035446;28;20295;-76
2022/06/16 06:19:25;;;;;;;3.27;1.60;;;15.80;1.00;;;;;;5032961;28;20208;-77
2022/06/16 06:22:03;;;;;;;3.17;1.60;;;15.90;1.00;;;;;;5034481;28;20171;-77
2022/06/16 06:25:00;;;;;;;3.10;1.30;;;15.90;1.00;;;;;;5034262;28;20188;-76
2022/06/16 06:27:43;;;;;;;7.40;1.97;;;16.00;99.90;;;;;;5035475;28;20203;-77
2022/06/16 06:30:16;;;;;;;4.77;1.60;;;16.00;99.90;;;;;;5036647;28;20164;-77
2022/06/16 06:32:42;;;;;;;3.00;1.80;;;16.00;1.00;;;;;;5036677;28;20152;-77
2022/06/16 06:35:09;;;;;;;9.73;1.80;;;16.10;1.00;;;;;;5036677;28;20536;-77
2022/06/16 06:37:38;;;;;;;5.93;1.43;;;16.10;1.00;;;;;;5034511;28;20202;-77
2022/06/16 06:40:07;;;;;;;3.30;1.80;;;16.10;1.00;;;;;;5037013;28;20176;-77
2022/06/16 06:42:33;;;;;;;3.27;1.53;;;16.20;1.00;;;;;;5041331;22;20223;-93
2022/06/16 06:44:59;;;;;;;5.97;2.20;;;16.80;1.00;;;;;;5011087;28;20190;-91
2022/06/16 06:48:03;;;;;;;2.70;1.57;;;16.80;99.90;;;;;;5027412;28;20273;-95
2022/06/16 06:50:38;;;;;;;4.37;2.00;;;16.30;1.00;;;;;;5031028;23;20692;-78
2022/06/16 06:53:04;;;;;;;5.07;1.83;;;16.40;1.00;;;;;;5033862;28;20203;-78
2022/06/16 06:55:30;;;;;;;4.60;2.10;;;16.40;1.00;;;;;;5018344;28;20232;-77
2022/06/16 06:57:56;;;;;;;2.87;1.57;;;16.50;1.00;;;;;;5017553;28;20208;-80
2022/06/16 07:00:26;;;;;;;4.63;1.90;;;16.60;99.90;;;;;;5020265;28;20226;-80
2022/06/16 07:02:51;;;;;;;3.67;1.63;;;16.60;1.00;;;;;;5035464;28;20272;-80
2022/06/16 07:05:17;;;;;;;3.77;1.70;;;16.70;99.90;;;;;;5021895;28;20173;-80
2022/06/16 07:07:43;;;;;;;4.00;1.70;;;16.80;99.90;;;;;;5020882;28;20184;-77
2022/06/16 07:10:09;;;;;;;2.80;1.60;;;16.80;1.00;;;;;;5018250;28;20592;-79
2022/06/16 07:12:35;;;;;;;4.17;1.70;;;16.80;1.00;;;;;;5021286;28;20173;-78
2022/06/16 07:15:01;;;;;;;4.10;1.70;;;16.90;99.90;;;;;;5016088;28;20177;-77
2022/06/16 07:17:27;;;;;;;3.57;1.63;;;17.00;92.80;;;;;;5017438;28;20208;-78
2022/06/16 07:19:53;;;;;;;3.20;1.40;;;17.00;99.90;;;;;;5019266;28;20232;-79
2022/06/16 07:22:19;;;;;;;4.07;1.57;;;17.00;1.00;;;;;;5019517;28;20721;-79
2022/06/16 07:24:46;;;;;;;3.77;1.70;;;17.10;43.40;;;;;;5019950;28;20643;-79
2022/06/16 07:27:12;;;;;;;3.70;1.33;;;17.10;1.00;;;;;;5018859;28;20196;-79
2022/06/16 07:29:37;;;;;;;3.47;1.40;;;17.10;1.00;;;;;;5018727;28;20594;-79
2022/06/16 07:32:04;;;;;;;3.33;1.47;;;17.20;99.90;;;;;;5019822;28;20173;-79
2022/06/16 07:34:30;;;;;;;4.80;1.20;;;17.20;1.00;;;;;;5035687;28;20196;-79
2022/06/16 07:36:56;;;;;;;4.63;1.50;;;17.20;1.00;;;;;;5019818;28;20227;-79
2022/06/16 07:39:22;;;;;;;3.47;1.50;;;17.40;1.00;;;;;;5019911;28;20184;-79
2022/06/16 07:41:48;;;;;;;3.00;1.47;;;17.40;99.90;;;;;;5020297;28;20199;-78
2022/06/16 07:44:15;;;;;;;3.20;1.40;;;17.50;99.90;;;;;;5015775;28;20714;-77
2022/06/16 07:46:43;;;;;;;5.03;1.70;;;17.50;1.00;;;;;;5017947;28;20196;-78
2022/06/16 07:49:12;;;;;;;3.63;1.60;;;17.60;1.00;;;;;;5016054;28;20177;-76
2022/06/16 07:51:39;;;;;;;2.73;1.47;;;17.70;99.90;;;;;;5013671;28;20227;-77
2022/06/16 07:54:05;;;;;;;2.80;1.77;;;17.80;99.90;;;;;;5028703;28;20215;-77
2022/06/16 07:56:31;;;;;;;3.33;1.63;;;17.80;99.90;;;;;;5028763;28;20177;-77
2022/06/16 07:58:56;;;;;;;6.43;1.80;;;17.90;1.00;;;;;;5029154;28;20180;-77
2022/06/16 08:01:22;;;;;;;3.53;1.77;;;17.90;89.40;;;;;;5012017;28;20195;-76
2022/06/16 08:03:47;;;;;;;3.40;1.60;;;18.00;97.00;;;;;;5013702;28;20185;-76
2022/06/16 08:06:22;;;;;;;4.20;1.80;;;18.00;99.90;;;;;;5013770;28;20267;-77
2022/06/16 08:08:47;;;;;;;5.33;1.57;;;18.10;99.90;;;;;;5014676;28;20177;-76
2022/06/16 08:13:58;;;;;;;4.67;2.20;;;18.20;99.90;;;;;;5013525;28;20196;-77
2022/06/16 08:16:24;;;;;;;4.50;1.77;;;18.20;99.90;;;;;;5013048;28;20651;-76
2022/06/16 08:18:50;;;;;;;4.07;2.00;;;18.30;1.00;;;;;;5028423;28;20180;-76
2022/06/16 08:21:16;;;;;;;6.07;1.63;;;18.40;99.90;;;;;;5012953;28;20704;-76
2022/06/16 08:23:41;;;;;;;3.30;1.60;;;18.40;99.90;;;;;;5016799;28;20267;-77
2022/06/16 08:26:07;;;;;;;6.90;1.90;;;18.50;93.30;;;;;;5016915;28;20184;-76
2022/06/16 08:28:33;;;;;;;4.47;1.67;;;18.60;12.60;;;;;;5031883;28;20173;-76
2022/06/16 08:31:01;;;;;;;5.10;1.40;;;18.60;1.00;;;;;;5016734;28;20642;-76
2022/06/16 08:33:27;;;;;;;6.13;1.53;;;18.70;1.00;;;;;;5031899;28;20229;-77
2022/06/16 08:35:53;;;;;;;3.63;1.30;;;18.80;1.00;;;;;;5016638;28;20173;-77
2022/06/16 08:38:18;;;;;;;3.23;0.97;;;18.90;1.00;;;;;;5031709;28;20177;-77
2022/06/16 08:40:47;;;;;;;4.40;1.60;;;19.10;99.90;;;;;;5017160;28;20663;-75
2022/06/16 08:43:27;;;;;;;4.10;1.30;;;19.20;99.90;;;;;;5016494;28;20201;-77
2022/06/16 08:45:58;;;;;;;4.03;1.53;;;19.30;99.90;;;;;;5016390;28;20243;-76
2022/06/16 08:49:07;;;;;;;1.67;0.90;;;19.30;99.90;;;;;;5016471;28;20157;-77
2022/06/16 08:52:01;;;;;;;2.47;1.00;;;19.40;99.90;;;;;;5016457;28;20215;-76
2022/06/16 08:55:00;;;;;;;5.73;1.17;;;19.50;99.90;;;;;;4993446;28;20209;-77
2022/06/16 08:57:56;;;;;;;3.87;1.00;;;19.60;99.90;;;;;;5016463;28;20173;-76
2022/06/16 09:00:44;;;;;;;1.30;0.90;;;19.70;99.90;;;;;;5016599;28;20157;-77
2022/06/16 09:03:38;;;;;;;3.03;1.00;;;19.70;1.00;;;;;;5031411;28;20196;-76
2022/06/16 09:06:25;;;;;;;2.33;1.00;;;19.70;1.00;;;;;;5016452;28;20706;-76
2022/06/16 09:09:12;;;;;;;2.77;0.90;;;19.70;1.00;;;;;;5016337;28;20161;-76
2022/06/16 09:12:04;;;;;;;1.77;0.80;;;19.70;1.00;;;;;;5031456;28;20291;-78
2022/06/16 09:18:07;;;;;;;2.47;1.37;;;19.80;1.00;;;;;;5016315;28;20228;-76
2022/06/16 09:20:44;;;;;;;1.50;0.83;;;19.90;1.00;;;;;;5016274;28;20161;-76
2022/06/16 09:23:18;;;;;;;1.13;0.80;;;20.00;1.00;;;;;;5015790;28;20188;-77
2022/06/16 09:26:03;;;;;;;1.40;0.90;;;20.10;1.00;;;;;;5016239;28;20165;-77
2022/06/16 09:28:37;;;;;;;3.67;0.97;;;20.10;1.00;;;;;;5015858;28;20157;-77
2022/06/16 09:31:13;;;;;;;1.70;0.80;;;20.20;1.00;;;;;;5015942;28;20200;-77
2022/06/16 09:33:43;;;;;;;2.80;0.70;;;20.30;1.00;;;;;;5014752;28;20609;-76
2022/06/16 09:36:13;;;;;;;2.83;0.93;;;20.40;1.00;;;;;;5014420;28;20162;-76
2022/06/16 09:38:46;;;;;;;3.30;1.20;;;20.40;1.00;;;;;;5015929;28;20170;-76
2022/06/16 09:44:45;;;;;;;2.70;1.00;;;20.50;1.00;;;;;;5015433;28;20753;-77
2022/06/16 09:47:14;;;;;;;1.07;0.67;;;20.50;1.00;;;;;;4986827;28;20585;-77
2022/06/16 09:50:05;;;;;;;1.43;0.90;;;20.60;1.00;;;;;;5015217;28;20189;-76
2022/06/16 09:53:21;;;;;;;1.90;0.63;;;20.70;1.00;;;;;;5015447;28;20582;-75
2022/06/16 09:55:54;;;;;;;1.43;0.87;;;20.70;1.00;;;;;;4957803;28;20249;-76
2022/06/16 09:58:47;;;;;;;1.60;0.73;;;20.80;1.00;;;;;;4973739;28;20163;-76
2022/06/16 10:01:18;;;;;;;3.63;1.00;;;20.90;1.00;;;;;;5006041;28;20189;-77
2022/06/16 10:04:03;;;;;;;1.80;0.83;;;21.00;1.00;;;;;;5029859;28;20199;-77
2022/06/16 10:06:43;;;;;;;2.13;1.10;;;21.10;1.00;;;;;;5014561;28;20185;-77
2022/06/16 10:09:27;;;;;;;2.70;0.93;;;21.20;1.00;;;;;;5013561;28;20172;-77
2022/06/16 10:12:14;;;;;;;2.60;1.00;;;21.30;1.00;;;;;;5029807;28;20172;-73
2022/06/16 10:14:44;;;;;;;2.30;0.87;;;21.30;1.00;;;;;;5014408;28;20192;-76
2022/06/16 10:17:13;;;;;;;3.63;0.83;;;21.40;1.00;;;;;;5014526;28;20169;-77
2022/06/16 10:19:43;;;;;;;2.67;0.87;;;21.50;1.00;;;;;;5014427;28;20173;-77
2022/06/16 10:22:10;;;;;;;2.50;1.03;;;21.50;1.00;;;;;;5014976;28;20176;-76
2022/06/16 10:24:41;;;;;;;0.97;0.70;;;21.50;1.00;;;;;;5016619;28;20690;-77
2022/06/16 10:27:09;;;;;;;4.90;1.30;;;21.40;1.00;;;;;;5016986;28;20185;-77
2022/06/16 10:29:35;;;;;;;3.40;1.67;;;21.50;1.00;;;;;;5030228;28;20558;-76
2022/06/16 10:32:03;;;;;;;1.60;1.07;;;21.50;1.00;;;;;;5016914;28;20180;-77
2022/06/16 10:34:41;;;;;;;1.87;1.27;;;21.70;1.00;;;;;;5016579;28;20209;-77
2022/06/16 10:37:09;;;;;;;2.00;0.93;;;21.70;1.00;;;;;;5016476;28;20241;-77
2022/06/16 10:39:43;;;;;;;2.57;1.17;;;21.80;1.00;;;;;;5030503;28;20272;-77
2022/06/16 10:42:20;;;;;;;1.23;0.80;;;22.00;1.00;;;;;;5014447;28;20157;-77
2022/06/16 10:44:53;;;;;;;2.33;1.00;;;21.90;1.00;;;;;;5015069;28;20247;-77
2022/06/16 10:47:32;;;;;;;1.87;0.77;;;22.00;1.00;;;;;;5016242;28;20201;-76
2022/06/16 10:49:58;;;;;;;2.77;1.30;;;22.00;1.00;;;;;;5015744;28;20180;-77
2022/06/16 10:52:28;;;;;;;2.53;0.93;;;22.00;1.00;;;;;;5015207;28;20509;-76
2022/06/16 10:55:29;;;;;;;2.93;1.13;;;22.10;1.00;;;;;;5033098;28;20169;-76
2022/06/16 10:58:06;;;;;;;1.30;1.17;;;22.10;1.00;;;;;;5035826;28;20180;-77
2022/06/16 11:00:35;;;;;;;2.30;0.97;;;22.10;1.00;;;;;;5017398;28;20509;-77
2022/06/16 11:03:15;;;;;;;3.30;1.23;;;22.10;1.00;;;;;;5017203;28;20193;-76
2022/06/16 11:05:58;;;;;;;5.63;1.00;;;22.20;1.00;;;;;;5017844;28;20529;-77
2022/06/16 11:08:38;;;;;;;2.07;1.03;;;22.40;1.00;;;;;;5015350;28;20531;-77
2022/06/16 11:11:05;;;;;;;3.83;0.93;;;22.30;1.00;;;;;;5014185;28;20162;-77
2022/06/16 11:13:35;;;;;;;2.67;1.20;;;22.30;1.00;;;;;;5028836;28;20283;-76
2022/06/16 11:16:07;;;;;;;2.27;1.00;;;22.40;1.00;;;;;;5029360;28;20213;-76
2022/06/16 11:18:33;;;;;;;2.00;1.00;;;22.50;1.00;;;;;;5028825;28;20204;-77
2022/06/16 11:21:00;;;;;;;1.83;0.97;;;22.50;1.00;;;;;;5012141;28;20314;-78
2022/06/16 11:23:30;;;;;;;2.03;1.30;;;22.60;1.00;;;;;;5012270;28;20610;-77
2022/06/16 11:26:28;;;;;;;6.10;1.43;;;22.70;1.00;;;;;;5013849;28;20161;-77
2022/06/16 11:28:57;;;;;;;2.63;1.37;;;22.70;1.00;;;;;;5013695;28;20165;-77
2022/06/16 11:31:35;;;;;;;1.67;1.20;;;22.70;1.00;;;;;;5013845;28;20175;-78
2022/06/16 11:34:16;;;;;;;1.60;0.90;;;22.70;1.00;;;;;;5028560;28;20193;-76
2022/06/16 11:37:09;;;;;;;3.40;0.90;;;22.70;1.00;;;;;;5013459;28;20208;-77
2022/06/16 11:39:55;;;;;;;1.80;1.03;;;22.80;1.00;;;;;;5013804;28;20169;-77
2022/06/16 11:42:26;;;;;;;4.73;1.20;;;22.80;1.00;;;;;;5013732;28;20169;-78
2022/06/16 11:45:33;;;;;;;1.60;0.90;;;22.90;1.00;;;;;;5013800;28;20533;-77
2022/06/16 11:48:24;;;;;;;1.90;1.20;;;23.00;1.00;;;;;;5029063;28;20196;-77
2022/06/16 11:50:58;;;;;;;2.83;0.97;;;23.10;1.00;;;;;;5013512;28;20189;-77
2022/06/16 11:54:01;;;;;;;1.93;1.20;;;23.20;1.00;;;;;;5014191;28;20192;-77
2022/06/16 11:56:44;;;;;;;2.63;1.20;;;23.30;1.00;;;;;;5014265;28;20161;-77
2022/06/16 11:59:41;;;;;;;1.90;1.33;;;23.30;1.00;;;;;;5033039;28;20161;-77
2022/06/16 12:02:52;;;;;;;3.23;1.10;;;23.20;1.00;;;;;;5017680;28;20161;-76
2022/06/16 12:05:21;;;;;;;3.50;1.13;;;23.30;1.00;;;;;;5017341;28;20639;-78
2022/06/16 12:08:10;;;;;;;1.73;0.87;;;23.40;1.00;;;;;;5017932;28;20189;-78
2022/06/16 12:11:03;;;;;;;3.50;1.43;;;23.40;1.00;;;;;;5018177;28;20215;-79
2022/06/16 12:13:45;;;;;;;3.33;1.10;;;23.60;1.00;;;;;;5037176;28;20276;-80
2022/06/16 12:16:20;;;;;;;3.37;1.30;;;23.60;1.00;;;;;;5021262;28;20160;-78
2022/06/16 12:19:06;;;;;;;1.50;1.10;;;23.50;1.00;;;;;;5035643;28;20173;-78
2022/06/16 12:21:50;;;;;;;2.20;1.40;;;23.60;1.00;;;;;;5020348;28;20571;-79
2022/06/16 12:24:45;;;;;;;1.73;1.10;;;23.50;1.00;;;;;;5036323;28;20583;-79
2022/06/16 12:27:13;;;;;;;1.50;1.03;;;23.50;1.00;;;;;;5009646;28;20237;-79
2022/06/16 12:30:00;;;;;;;2.50;1.10;;;23.40;1.00;;;;;;5020696;28;20537;-79
2022/06/16 12:32:40;;;;;;;2.03;1.37;;;23.50;1.00;;;;;;5034813;28;20172;-79
2022/06/16 12:35:24;;;;;;;1.80;1.30;;;23.50;1.00;;;;;;5020075;28;20189;-79
2022/06/16 12:38:05;;;;;;;3.23;1.10;;;23.60;1.00;;;;;;5020427;28;20667;-78
2022/06/16 12:40:35;;;;;;;1.80;1.17;;;23.70;1.00;;;;;;5018944;28;20169;-78
2022/06/16 12:43:10;;;;;;;2.03;1.20;;;23.80;1.00;;;;;;5020487;28;20569;-79
2022/06/16 12:45:41;;;;;;;3.10;0.97;;;23.80;1.00;;;;;;5036206;28;20538;-78
2022/06/16 12:48:12;;;;;;;1.33;1.07;;;23.90;1.00;;;;;;5019947;28;20203;-79
2022/06/16 12:50:44;;;;;;;6.57;1.10;;;24.10;1.00;;;;;;5020298;28;20571;-79
2022/06/16 12:53:16;;;;;;;4.13;1.40;;;23.90;1.00;;;;;;5020835;28;20193;-80
2022/06/16 12:56:08;;;;;;;2.87;1.40;;;24.00;1.00;;;;;;5020639;28;20154;-79
2022/06/16 12:58:41;;;;;;;2.83;1.08;;;24.20;1.00;;;;;;4995966;28;20195;-79
2022/06/16 13:01:08;;;;;;;2.67;1.00;;;24.20;1.00;;;;;;5020100;28;20251;-78
2022/06/16 13:03:43;;;;;;;3.63;0.97;;;24.30;1.00;;;;;;5033585;28;20201;-79
2022/06/16 13:06:11;;;;;;;4.20;1.20;;;24.30;1.00;;;;;;5017907;28;20160;-77
2022/06/16 13:08:41;;;;;;;3.47;1.20;;;24.40;1.00;;;;;;5017885;28;20241;-79
2022/06/16 13:11:12;;;;;;;1.83;1.38;;;24.40;1.00;;;;;;5019114;28;20162;-80
2022/06/16 13:13:44;;;;;;;1.93;1.10;;;24.50;1.00;;;;;;5034724;28;20228;-81
2022/06/16 13:16:16;;;;;;;2.75;1.25;;;24.50;1.00;;;;;;5018890;28;20220;-79
2022/06/16 13:18:46;;;;;;;1.27;0.90;;;24.50;1.00;;;;;;5017963;28;20169;-80
2022/06/16 13:21:20;;;;;;;2.70;1.20;;;24.40;1.00;;;;;;5018826;28;20183;-79
2022/06/16 13:23:49;;;;;;;1.60;1.10;;;24.60;1.00;;;;;;5018404;28;20188;-80
2022/06/16 13:26:17;;;;;;;4.28;1.45;;;24.90;1.00;;;;;;5017891;28;20165;-79
2022/06/16 13:28:52;;;;;;;1.42;0.90;;;25.10;1.00;;;;;;5033172;28;20180;-79
2022/06/16 13:31:46;;;;;;;2.95;1.20;;;25.10;1.00;;;;;;5019266;28;20252;-81
2022/06/16 13:34:19;;;;;;;3.85;1.10;;;25.00;1.00;;;;;;4995790;28;20304;-79
2022/06/16 13:36:52;;;;;;;3.35;1.40;;;24.70;1.00;;;;;;5018511;28;20631;-84
2022/06/16 13:39:56;;;;;;;1.75;1.13;;;24.70;1.00;;;;;;5018089;28;20223;-81
2022/06/16 13:42:43;;;;;;;1.90;1.03;;;24.80;1.00;;;;;;5017564;28;20168;-80
2022/06/16 13:45:12;;;;;;;4.87;1.40;;;24.80;1.00;;;;;;5016804;28;20188;-81
2022/06/16 13:48:12;;;;;;;3.75;1.48;;;24.90;1.00;;;;;;5017434;28;20597;-77